Time;durP1;ratioP1;P1;durP2;ratioP2;P2;SDS_P1;SDS_P2;PMS_P1;PMS_P2;Temp;Humidity;BMP_temperature;BMP_pressure;BME280_temperature;BME280_humidity;BME280_pressure;Samples;Min_cycle;Max_cycle;Signal;HPM_P1;HPM_P2
2023/02/13 00:00:04;;;;;;;39.05;18.98;;;7.40;99.90;;;;;;5020728;28;20034;-65
2023/02/13 00:02:30;;;;;;;35.42;18.92;;;7.50;99.90;;;;;;5014723;28;20034;-63
2023/02/13 00:04:55;;;;;;;35.50;18.17;;;7.40;99.90;;;;;;5019678;28;20041;-65
2023/02/13 00:07:21;;;;;;;34.95;18.73;;;7.40;99.90;;;;;;5018788;28;20034;-62
2023/02/13 00:09:47;;;;;;;35.88;17.98;;;7.40;99.90;;;;;;5020935;28;20380;-63
2023/02/13 00:12:12;;;;;;;36.28;19.45;;;7.40;99.90;;;;;;5014638;28;20037;-64
2023/02/13 00:14:38;;;;;;;32.30;18.42;;;7.40;99.90;;;;;;5025835;28;20515;-65
2023/02/13 00:17:05;;;;;;;34.95;18.23;;;7.40;99.90;;;;;;5002440;28;20101;-63
2023/02/13 00:19:31;;;;;;;41.15;19.88;;;7.50;99.90;;;;;;5020882;28;20369;-63
2023/02/13 00:21:56;;;;;;;34.35;18.60;;;7.40;99.90;;;;;;5003491;28;20416;-63
2023/02/13 00:24:22;;;;;;;34.45;19.10;;;7.50;99.90;;;;;;5005657;28;20041;-64
2023/02/13 00:26:48;;;;;;;34.60;17.67;;;7.40;99.90;;;;;;5008384;28;20046;-69
2023/02/13 00:29:13;;;;;;;39.53;19.02;;;7.40;99.90;;;;;;5022146;28;20033;-62
2023/02/13 00:31:39;;;;;;;37.75;18.17;;;7.40;99.90;;;;;;5018352;28;20037;-63
2023/02/13 00:34:05;;;;;;;33.75;18.27;;;7.40;99.90;;;;;;5020545;28;20059;-63
2023/02/13 00:36:30;;;;;;;35.47;18.17;;;7.40;99.90;;;;;;5015836;28;20038;-66
2023/02/13 00:38:56;;;;;;;35.60;17.52;;;7.40;99.90;;;;;;5017119;28;20049;-62
2023/02/13 00:41:22;;;;;;;34.28;17.60;;;7.40;99.90;;;;;;5018046;28;20105;-62
2023/02/13 00:43:48;;;;;;;31.15;17.55;;;7.40;99.90;;;;;;5026493;28;20029;-63
2023/02/13 00:46:15;;;;;;;33.83;17.77;;;7.40;99.90;;;;;;5007584;28;20395;-63
2023/02/13 00:48:41;;;;;;;33.00;17.30;;;7.40;99.90;;;;;;5010648;28;20044;-65
2023/02/13 00:51:07;;;;;;;38.90;18.00;;;7.40;99.90;;;;;;5003591;28;20431;-63
2023/02/13 00:53:35;;;;;;;34.03;17.55;;;7.40;99.90;;;;;;5018122;28;20045;-65
2023/02/13 00:56:01;;;;;;;35.60;18.02;;;7.40;99.90;;;;;;5007724;28;21282;-65
2023/02/13 00:58:30;;;;;;;33.78;17.95;;;7.40;99.90;;;;;;5016077;28;20522;-62
2023/02/13 01:00:55;;;;;;;34.42;17.60;;;7.40;99.90;;;;;;5020396;28;20091;-65
2023/02/13 01:03:22;;;;;;;32.63;17.25;;;7.40;99.90;;;;;;5005056;28;20033;-65
2023/02/13 01:05:48;;;;;;;32.33;17.75;;;7.40;99.90;;;;;;5007843;28;20038;-65
2023/02/13 01:08:15;;;;;;;37.17;18.35;;;7.40;99.90;;;;;;5008787;28;20369;-65
2023/02/13 01:10:41;;;;;;;34.47;18.27;;;7.40;99.90;;;;;;5005129;28;20033;-66
2023/02/13 01:13:08;;;;;;;35.05;18.05;;;7.40;99.90;;;;;;5025909;28;20044;-63
2023/02/13 01:15:34;;;;;;;34.78;18.60;;;7.40;99.90;;;;;;4995425;28;20045;-65
2023/02/13 01:18:00;;;;;;;35.78;19.38;;;7.30;99.90;;;;;;5021338;28;20040;-65
2023/02/13 01:20:30;;;;;;;32.65;17.70;;;7.30;99.90;;;;;;5019978;28;20069;-65
2023/02/13 01:22:56;;;;;;;32.15;18.40;;;7.30;99.90;;;;;;5005349;28;20041;-62
2023/02/13 01:25:22;;;;;;;33.58;17.27;;;7.40;99.90;;;;;;5005994;28;20185;-65
2023/02/13 01:27:48;;;;;;;38.45;18.70;;;7.30;99.90;;;;;;5014593;28;20117;-65
2023/02/13 01:30:15;;;;;;;36.00;17.42;;;7.30;99.90;;;;;;5018355;28;20543;-63
2023/02/13 01:32:42;;;;;;;33.10;17.88;;;7.30;99.90;;;;;;5022161;28;20038;-65
2023/02/13 01:35:09;;;;;;;34.97;17.85;;;7.30;99.90;;;;;;5031543;28;20048;-65
2023/02/13 01:37:35;;;;;;;37.72;18.15;;;7.30;99.90;;;;;;5019220;28;21215;-65
2023/02/13 01:40:02;;;;;;;34.92;18.90;;;7.30;99.90;;;;;;5030624;28;20029;-65
2023/02/13 01:42:30;;;;;;;37.80;18.15;;;7.50;99.90;;;;;;5024911;28;20128;-64
2023/02/13 01:44:58;;;;;;;33.45;17.88;;;7.30;99.90;;;;;;5010629;28;20343;-66
2023/02/13 01:47:41;;;;;;;35.15;17.80;;;7.30;99.90;;;;;;5021546;28;20241;-66
2023/02/13 01:50:10;;;;;;;31.35;17.60;;;7.30;99.90;;;;;;5012634;28;20530;-65
2023/02/13 01:52:41;;;;;;;33.47;17.83;;;7.30;99.90;;;;;;5008405;28;20041;-65
2023/02/13 01:55:08;;;;;;;36.27;19.50;;;7.30;99.90;;;;;;5013239;28;20546;-65
2023/02/13 01:57:36;;;;;;;38.78;19.15;;;7.40;99.90;;;;;;5017722;28;20275;-63
2023/02/13 02:00:09;;;;;;;34.78;19.15;;;7.30;99.90;;;;;;5017560;28;20044;-66
2023/02/13 02:02:38;;;;;;;38.67;20.02;;;7.30;99.90;;;;;;5014938;28;20281;-65
2023/02/13 02:05:05;;;;;;;38.75;19.73;;;7.30;99.90;;;;;;5012349;28;20042;-66
2023/02/13 02:07:32;;;;;;;36.03;18.75;;;7.30;99.90;;;;;;5016339;28;20049;-64
2023/02/13 02:10:06;;;;;;;35.70;18.23;;;7.40;99.90;;;;;;5015050;28;20068;-66
2023/02/13 02:13:10;;;;;;;36.75;19.58;;;7.30;99.90;;;;;;5019235;28;20129;-65
2023/02/13 02:15:36;;;;;;;36.70;18.05;;;7.30;99.90;;;;;;5018196;28;20128;-65
2023/02/13 02:18:02;;;;;;;36.38;18.55;;;7.30;99.90;;;;;;5021327;28;20475;-66
2023/02/13 02:21:01;;;;;;;34.33;19.10;;;7.30;99.90;;;;;;5023395;28;20129;-65
2023/02/13 02:23:38;;;;;;;35.72;18.10;;;7.30;99.90;;;;;;5046433;23;20064;-80
2023/02/13 02:26:32;;;;;;;36.95;19.15;;;7.30;99.90;;;;;;5014558;28;20048;-77
2023/02/13 02:29:13;;;;;;;34.38;18.00;;;7.30;99.90;;;;;;5012739;28;20033;-77
2023/02/13 02:32:06;;;;;;;35.67;19.30;;;7.30;99.90;;;;;;5013203;28;20448;-78
2023/02/13 02:34:46;;;;;;;35.22;18.13;;;7.30;99.90;;;;;;5018243;28;20529;-77
2023/02/13 02:37:31;;;;;;;36.72;18.73;;;7.30;99.90;;;;;;5031289;28;20046;-77
2023/02/13 02:40:29;;;;;;;32.60;17.90;;;7.30;99.90;;;;;;5028411;28;20044;-77
2023/02/13 02:42:54;;;;;;;34.35;17.90;;;7.30;99.90;;;;;;5030654;28;20481;-77
2023/02/13 02:45:20;;;;;;;33.70;18.40;;;7.30;99.90;;;;;;5031371;28;20038;-78
2023/02/13 02:51:01;;;;;;;38.05;19.50;;;7.20;99.90;;;;;;5018830;28;20127;-77
2023/02/13 02:53:38;;;;;;;36.42;18.98;;;7.30;99.90;;;;;;5029981;28;20111;-77
2023/02/13 02:56:12;;;;;;;36.10;18.63;;;7.20;99.90;;;;;;5021117;28;20048;-77
2023/02/13 03:07:21;;;;;;;36.28;17.85;;;7.20;99.90;;;;;;5024258;28;20067;-77
2023/02/13 03:22:23;;;;;;;32.00;17.63;;;7.20;99.90;;;;;;5025036;28;20060;-77
2023/02/13 03:25:00;;;;;;;36.35;17.65;;;7.20;99.90;;;;;;5026331;28;20176;-77
2023/02/13 03:30:57;;;;;;;35.55;17.58;;;8.10;99.90;;;;;;5021708;28;20068;-77
2023/02/13 03:33:52;;;;;;;37.47;17.92;;;7.20;99.90;;;;;;5017096;28;20095;-77
2023/02/13 03:39:29;;;;;;;31.67;17.23;;;7.20;99.90;;;;;;5027800;28;20095;-77
2023/02/13 03:42:01;;;;;;;33.42;19.27;;;7.20;99.90;;;;;;5028970;28;20045;-77
2023/02/13 03:44:42;;;;;;;32.65;17.75;;;7.20;99.90;;;;;;5026024;28;20041;-78
2023/02/13 03:47:10;;;;;;;32.28;17.02;;;7.20;99.90;;;;;;5013201;28;20038;-78
2023/02/13 03:52:26;;;;;;;32.92;17.67;;;7.20;99.90;;;;;;5029325;28;20058;-78
2023/02/13 04:00:46;;;;;;;33.88;17.67;;;7.20;99.90;;;;;;5023726;28;20053;-78
2023/02/13 04:03:36;;;;;;;34.83;18.08;;;7.20;99.90;;;;;;5020617;28;20038;-78
2023/02/13 04:06:07;;;;;;;32.30;17.30;;;7.20;99.90;;;;;;5017665;28;20034;-77
2023/02/13 04:08:33;;;;;;;32.38;18.05;;;7.20;99.90;;;;;;5023617;28;20428;-77
2023/02/13 04:11:09;;;;;;;33.05;17.33;;;7.20;99.90;;;;;;5024086;28;20045;-77
2023/02/13 04:13:42;;;;;;;32.00;16.88;;;7.20;99.90;;;;;;5025934;28;20039;-77
2023/02/13 04:16:17;;;;;;;32.05;16.33;;;7.10;99.90;;;;;;5020600;28;20046;-77
2023/02/13 04:18:44;;;;;;;32.38;16.40;;;7.20;99.90;;;;;;5022064;28;20447;-77
2023/02/13 04:21:09;;;;;;;34.03;17.92;;;7.20;99.90;;;;;;5018469;28;20108;-78
2023/02/13 04:23:35;;;;;;;32.72;16.85;;;7.20;99.90;;;;;;5015483;28;20081;-78
2023/02/13 04:26:05;;;;;;;32.55;17.45;;;7.20;99.90;;;;;;5024864;28;20033;-77
2023/02/13 04:28:30;;;;;;;31.95;16.27;;;7.20;99.90;;;;;;5018598;28;20406;-77
2023/02/13 04:30:56;;;;;;;29.48;15.63;;;7.20;99.90;;;;;;5018665;28;20335;-77
2023/02/13 04:33:22;;;;;;;30.83;15.75;;;7.20;99.90;;;;;;5019273;28;20037;-77
2023/02/13 04:35:48;;;;;;;32.63;16.85;;;7.30;99.90;;;;;;5029920;28;20064;-77
2023/02/13 04:38:13;;;;;;;32.55;17.50;;;7.20;99.90;;;;;;5018860;28;20049;-77
2023/02/13 04:40:39;;;;;;;32.63;16.95;;;7.10;99.90;;;;;;5018338;28;20482;-78
2023/02/13 04:43:04;;;;;;;32.33;17.35;;;7.20;99.90;;;;;;5020259;28;20069;-77
2023/02/13 04:45:30;;;;;;;31.40;16.65;;;7.20;99.90;;;;;;5024514;28;20041;-77
2023/02/13 04:47:56;;;;;;;33.53;17.27;;;7.20;99.90;;;;;;5029796;28;20041;-77
2023/02/13 04:50:23;;;;;;;37.13;18.50;;;7.20;99.90;;;;;;5018308;28;20038;-77
2023/02/13 04:52:55;;;;;;;33.67;17.67;;;7.20;99.90;;;;;;5023269;28;20104;-77
2023/02/13 04:55:25;;;;;;;33.17;16.13;;;7.10;99.90;;;;;;5022627;28;20029;-77
2023/02/13 04:57:52;;;;;;;34.67;18.05;;;7.10;99.90;;;;;;5029760;28;20048;-77
2023/02/13 05:00:22;;;;;;;33.53;17.58;;;7.10;99.90;;;;;;5023945;28;20103;-78
2023/02/13 05:02:47;;;;;;;34.45;17.33;;;7.10;99.90;;;;;;5021660;28;20421;-78
2023/02/13 05:05:13;;;;;;;33.75;16.60;;;7.10;99.90;;;;;;5021948;28;20038;-77
2023/02/13 05:07:40;;;;;;;28.45;16.20;;;7.10;99.90;;;;;;5026759;28;20045;-76
2023/02/13 05:10:06;;;;;;;32.63;17.00;;;7.20;99.90;;;;;;5019817;28;20057;-76
2023/02/13 05:12:32;;;;;;;32.47;16.80;;;7.10;99.90;;;;;;5029096;28;20088;-76
2023/02/13 05:14:57;;;;;;;32.83;16.75;;;7.20;99.90;;;;;;5028607;28;20045;-75
2023/02/13 05:17:23;;;;;;;30.77;16.63;;;7.20;99.90;;;;;;5024144;28;20049;-77
2023/02/13 05:19:48;;;;;;;32.67;16.70;;;7.20;99.90;;;;;;5029338;28;20041;-76
2023/02/13 05:24:58;;;;;;;33.60;16.23;;;7.20;99.90;;;;;;5013691;28;20053;-76
2023/02/13 05:27:24;;;;;;;32.53;16.33;;;7.20;99.90;;;;;;5025114;28;20041;-76
2023/02/13 05:29:49;;;;;;;33.30;16.40;;;7.20;99.90;;;;;;5020799;28;20025;-75
2023/02/13 05:32:15;;;;;;;29.15;15.90;;;7.20;99.90;;;;;;5026313;28;20037;-76
2023/02/13 05:34:41;;;;;;;29.83;16.63;;;7.30;99.90;;;;;;5032940;28;20428;-76
2023/02/13 05:37:06;;;;;;;34.60;16.73;;;7.30;99.90;;;;;;5025433;28;20113;-77
2023/02/13 05:39:32;;;;;;;33.70;16.48;;;7.20;99.90;;;;;;5031283;28;20049;-76
2023/02/13 05:41:57;;;;;;;33.13;16.33;;;7.20;99.90;;;;;;5032144;28;20555;-76
2023/02/13 05:44:23;;;;;;;34.05;17.10;;;7.10;99.90;;;;;;5029886;28;20048;-76
2023/02/13 05:46:48;;;;;;;33.25;16.85;;;7.10;99.90;;;;;;5030414;28;20125;-76
2023/02/13 05:49:15;;;;;;;32.40;17.08;;;7.20;99.90;;;;;;5023282;28;20115;-76
2023/02/13 05:51:41;;;;;;;31.92;16.95;;;7.20;99.90;;;;;;5026169;28;20042;-75
2023/02/13 05:54:07;;;;;;;32.88;16.13;;;7.10;99.90;;;;;;5032510;28;20040;-76
2023/02/13 05:56:33;;;;;;;33.88;16.05;;;7.20;99.90;;;;;;5022140;28;20491;-78
2023/02/13 05:58:58;;;;;;;33.55;17.10;;;7.20;99.90;;;;;;5032603;28;20088;-76
2023/02/13 06:01:24;;;;;;;32.05;15.38;;;7.20;99.90;;;;;;5028839;28;20045;-76
2023/02/13 06:03:50;;;;;;;33.13;16.88;;;7.10;99.90;;;;;;5024479;28;20045;-75
2023/02/13 06:06:16;;;;;;;33.88;16.98;;;7.10;99.90;;;;;;5032248;28;20116;-76
2023/02/13 06:08:42;;;;;;;29.48;16.85;;;7.10;99.90;;;;;;5028490;28;20164;-76
2023/02/13 06:11:08;;;;;;;30.95;16.42;;;7.10;99.90;;;;;;5028555;28;20504;-76
2023/02/13 06:13:34;;;;;;;32.50;16.48;;;7.20;99.90;;;;;;5017511;28;20045;-76
2023/02/13 06:15:59;;;;;;;33.13;16.35;;;7.20;99.90;;;;;;5020648;28;20037;-75
2023/02/13 06:18:25;;;;;;;29.27;15.77;;;7.20;99.90;;;;;;5029083;28;20064;-76
2023/02/13 06:20:50;;;;;;;34.33;17.25;;;7.10;99.90;;;;;;5016787;28;20049;-76
2023/02/13 06:23:16;;;;;;;33.28;16.17;;;7.20;99.90;;;;;;5031170;28;20041;-76
2023/02/13 06:25:42;;;;;;;32.10;16.45;;;7.20;99.90;;;;;;5022901;28;20045;-78
2023/02/13 06:28:08;;;;;;;33.67;16.30;;;7.10;99.90;;;;;;5011396;28;20045;-75
2023/02/13 06:30:34;;;;;;;30.90;15.35;;;7.20;99.90;;;;;;5012534;28;20033;-76
2023/02/13 06:32:59;;;;;;;32.08;16.42;;;7.20;99.90;;;;;;5017509;28;20401;-75
2023/02/13 06:35:25;;;;;;;30.02;16.38;;;7.10;99.90;;;;;;5026801;28;20417;-76
2023/02/13 06:37:51;;;;;;;31.33;15.70;;;7.20;99.90;;;;;;5028174;28;20038;-79
2023/02/13 06:40:17;;;;;;;30.60;15.77;;;7.20;99.90;;;;;;5027307;28;20045;-76
2023/02/13 06:42:43;;;;;;;33.20;16.85;;;7.20;99.90;;;;;;5024452;28;20489;-76
2023/02/13 06:45:10;;;;;;;33.33;17.02;;;7.20;99.90;;;;;;5025744;28;20049;-76
2023/02/13 06:47:39;;;;;;;28.13;15.43;;;7.20;99.90;;;;;;5014335;28;20044;-78
2023/02/13 06:50:05;;;;;;;32.75;16.05;;;7.20;99.90;;;;;;5016874;28;20125;-75
2023/02/13 06:52:31;;;;;;;30.60;16.45;;;7.20;99.90;;;;;;5016264;28;20129;-76
2023/02/13 06:54:56;;;;;;;32.40;16.95;;;7.20;99.90;;;;;;5026356;28;20128;-76
2023/02/13 06:57:22;;;;;;;32.70;17.27;;;7.20;99.90;;;;;;5024988;28;20046;-80
2023/02/13 06:59:47;;;;;;;35.38;16.85;;;7.20;99.90;;;;;;5019725;28;20073;-77
2023/02/13 07:02:13;;;;;;;34.60;18.00;;;7.20;99.90;;;;;;5022514;28;20052;-76
2023/02/13 07:04:39;;;;;;;31.20;16.25;;;7.40;99.90;;;;;;5015840;28;20054;-76
2023/02/13 07:07:05;;;;;;;31.20;16.38;;;7.20;99.90;;;;;;5015840;28;20040;-76
2023/02/13 07:09:31;;;;;;;32.30;16.50;;;7.20;99.90;;;;;;5030550;28;20040;-76
2023/02/13 07:11:57;;;;;;;32.22;16.10;;;7.20;99.90;;;;;;5024375;28;20064;-76
2023/02/13 07:14:22;;;;;;;33.53;17.27;;;7.20;99.90;;;;;;5006370;28;20042;-76
2023/02/13 07:16:48;;;;;;;33.65;17.33;;;7.20;99.90;;;;;;5029061;28;20065;-75
2023/02/13 07:19:14;;;;;;;32.38;16.23;;;7.20;99.90;;;;;;5025689;28;20038;-76
2023/02/13 07:21:39;;;;;;;29.95;16.00;;;7.30;99.90;;;;;;5030551;28;20044;-76
2023/02/13 07:24:05;;;;;;;31.17;16.23;;;7.30;99.90;;;;;;5026415;28;20042;-75
2023/02/13 07:26:31;;;;;;;29.08;15.50;;;7.30;99.90;;;;;;5020565;28;20493;-75
2023/02/13 07:28:56;;;;;;;33.78;16.80;;;7.30;99.90;;;;;;5022844;28;20034;-75
2023/02/13 07:31:22;;;;;;;31.15;15.57;;;7.50;99.90;;;;;;5008998;28;20043;-75
2023/02/13 07:33:48;;;;;;;30.15;16.23;;;7.50;99.90;;;;;;5015447;28;20030;-75
2023/02/13 07:36:14;;;;;;;29.52;16.15;;;7.30;99.90;;;;;;5018251;28;20041;-76
2023/02/13 07:38:39;;;;;;;30.83;16.52;;;7.30;99.90;;;;;;5018276;28;20042;-74
2023/02/13 07:41:05;;;;;;;30.27;15.35;;;7.30;99.90;;;;;;5014534;28;20040;-75
2023/02/13 07:43:31;;;;;;;31.33;16.10;;;7.30;99.90;;;;;;5019114;28;20042;-75
2023/02/13 07:46:01;;;;;;;31.92;15.25;;;7.30;99.90;;;;;;5020407;28;20038;-75
2023/02/13 07:48:27;;;;;;;33.45;17.58;;;7.30;99.90;;;;;;5013579;28;20092;-76
2023/02/13 07:50:59;;;;;;;28.38;15.38;;;7.30;99.90;;;;;;5017815;28;20104;-76
2023/02/13 07:53:25;;;;;;;36.57;16.73;;;7.30;99.90;;;;;;5010385;28;20095;-76
2023/02/13 07:55:50;;;;;;;34.67;16.23;;;7.40;99.90;;;;;;4999218;28;20285;-76
2023/02/13 07:58:16;;;;;;;31.08;16.15;;;7.30;99.90;;;;;;5014040;28;20041;-75
2023/02/13 08:00:41;;;;;;;33.65;16.13;;;7.40;99.90;;;;;;5026668;28;20101;-75
2023/02/13 08:03:08;;;;;;;32.38;15.43;;;7.40;99.90;;;;;;5025717;28;20467;-75
2023/02/13 08:05:34;;;;;;;29.77;15.70;;;7.40;99.90;;;;;;5005357;28;20049;-74
2023/02/13 08:08:00;;;;;;;32.70;15.95;;;7.40;99.90;;;;;;5022817;28;20397;-74
2023/02/13 08:13:12;;;;;;;30.42;15.65;;;7.60;99.90;;;;;;5029307;28;20052;-74
2023/02/13 08:15:38;;;;;;;34.05;16.02;;;7.50;99.90;;;;;;5019285;28;20148;-74
2023/02/13 08:18:04;;;;;;;31.67;15.27;;;7.50;99.90;;;;;;5024303;28;20037;-74
2023/02/13 08:20:30;;;;;;;28.10;14.85;;;7.50;99.90;;;;;;5023720;28;20095;-75
2023/02/13 08:23:02;;;;;;;31.77;15.60;;;7.50;99.90;;;;;;5006423;28;20042;-75
2023/02/13 08:25:28;;;;;;;28.92;14.93;;;7.50;99.90;;;;;;5116393;23;20506;-75
2023/02/13 08:27:54;;;;;;;31.80;15.27;;;7.50;99.90;;;;;;5068512;28;20083;-75
2023/02/13 08:30:20;;;;;;;31.67;14.82;;;7.60;99.90;;;;;;5090685;28;20399;-75
2023/02/13 08:32:46;;;;;;;29.98;15.48;;;7.60;99.90;;;;;;5056788;28;20041;-75
2023/02/13 08:35:11;;;;;;;28.80;14.50;;;7.60;99.90;;;;;;5073352;28;20032;-75
2023/02/13 08:37:37;;;;;;;29.80;15.38;;;7.60;99.90;;;;;;5073319;28;20131;-75
2023/02/13 08:40:02;;;;;;;36.10;17.33;;;7.60;99.90;;;;;;5084368;28;20040;-75
2023/02/13 08:42:28;;;;;;;33.35;16.92;;;7.60;99.90;;;;;;5091860;28;20035;-75
2023/02/13 08:44:54;;;;;;;30.27;15.93;;;7.60;99.90;;;;;;5065530;28;20523;-75
2023/02/13 08:47:19;;;;;;;30.17;17.02;;;7.70;99.90;;;;;;5090555;28;20047;-76
2023/02/13 08:49:45;;;;;;;31.55;16.20;;;7.70;99.90;;;;;;5072884;28;20484;-75
2023/02/13 08:52:10;;;;;;;32.28;16.45;;;7.70;99.90;;;;;;5091006;28;20058;-75
2023/02/13 08:54:36;;;;;;;28.30;14.75;;;7.70;99.90;;;;;;5091140;28;20487;-75
2023/02/13 08:57:02;;;;;;;29.52;15.65;;;7.70;99.90;;;;;;5070974;28;20027;-75
2023/02/13 08:59:28;;;;;;;32.13;15.20;;;7.80;99.90;;;;;;5091140;28;20028;-75
2023/02/13 09:01:53;;;;;;;29.38;15.05;;;7.80;99.90;;;;;;5063385;28;20038;-75
2023/02/13 09:04:19;;;;;;;29.55;14.98;;;7.80;99.90;;;;;;5080605;28;20044;-75
2023/02/13 09:06:44;;;;;;;28.77;15.05;;;7.80;99.90;;;;;;5080664;28;20036;-75
2023/02/13 09:09:10;;;;;;;29.00;14.48;;;7.80;99.90;;;;;;5073048;28;20036;-75
2023/02/13 09:11:36;;;;;;;32.90;15.02;;;7.80;99.90;;;;;;5072789;28;20032;-75
2023/02/13 09:14:02;;;;;;;28.80;14.05;;;7.80;99.90;;;;;;5051851;28;20029;-75
2023/02/13 09:16:28;;;;;;;30.63;15.38;;;7.80;99.90;;;;;;5068267;28;20051;-75
2023/02/13 09:18:53;;;;;;;32.42;14.85;;;7.90;99.90;;;;;;5072395;28;20040;-75
2023/02/13 09:21:22;;;;;;;24.98;13.98;;;7.90;99.90;;;;;;5070305;28;20399;-74
2023/02/13 09:23:49;;;;;;;27.55;14.82;;;7.90;99.90;;;;;;5067662;28;20170;-75
2023/02/13 09:26:16;;;;;;;28.90;14.45;;;8.00;99.90;;;;;;5079192;28;20039;-75
2023/02/13 09:28:42;;;;;;;28.48;14.70;;;8.00;99.90;;;;;;5077786;28;20403;-76
2023/02/13 09:31:10;;;;;;;27.35;14.27;;;8.00;99.90;;;;;;5061364;28;20044;-75
2023/02/13 09:33:36;;;;;;;29.77;14.70;;;8.10;99.90;;;;;;5073020;28;20399;-76
2023/02/13 09:36:07;;;;;;;29.15;15.20;;;8.00;99.90;;;;;;5074094;28;20119;-75
2023/02/13 09:38:33;;;;;;;27.85;14.50;;;8.10;99.90;;;;;;5069688;28;20039;-75
2023/02/13 09:41:06;;;;;;;30.02;14.95;;;8.10;99.90;;;;;;5080925;28;20499;-75
2023/02/13 09:43:43;;;;;;;31.60;14.68;;;8.10;99.90;;;;;;5067239;28;20114;-75
2023/02/13 09:46:28;;;;;;;29.45;15.77;;;8.30;99.90;;;;;;5070227;28;20036;-75
2023/02/13 09:48:57;;;;;;;30.50;15.60;;;8.20;99.90;;;;;;5062850;28;20048;-75
2023/02/13 09:51:24;;;;;;;31.25;14.93;;;8.20;99.90;;;;;;5059535;28;20503;-76
2023/02/13 09:53:55;;;;;;;30.95;16.17;;;8.50;99.90;;;;;;5072318;28;20050;-75
2023/02/13 09:56:40;;;;;;;28.85;15.55;;;8.30;99.90;;;;;;5066454;28;20063;-75
2023/02/13 09:59:44;;;;;;;26.95;15.10;;;8.30;99.90;;;;;;5072707;28;20395;-75
2023/02/13 10:02:28;;;;;;;32.85;16.02;;;8.30;99.90;;;;;;5082519;28;20093;-75
2023/02/13 10:05:09;;;;;;;35.22;17.83;;;8.40;99.90;;;;;;5082583;28;20044;-75
2023/02/13 10:07:45;;;;;;;32.13;17.25;;;8.40;99.90;;;;;;5053022;28;20096;-75
2023/02/13 10:10:27;;;;;;;34.35;16.98;;;8.40;99.90;;;;;;5059827;28;20169;-76
2023/02/13 10:13:22;;;;;;;31.02;16.63;;;8.80;99.90;;;;;;5088349;28;20032;-74
2023/02/13 10:16:00;;;;;;;32.65;18.15;;;8.50;99.90;;;;;;5072963;28;20067;-75
2023/02/13 10:18:36;;;;;;;35.42;18.98;;;8.50;99.90;;;;;;5069729;28;20036;-76
2023/02/13 10:21:02;;;;;;;35.20;19.00;;;8.60;99.90;;;;;;5080861;28;20044;-76
2023/02/13 10:23:34;;;;;;;35.60;18.55;;;8.60;99.90;;;;;;5075441;28;20036;-75
2023/02/13 10:26:03;;;;;;;33.10;19.02;;;8.60;99.90;;;;;;5075556;28;20075;-75
2023/02/13 10:30:03;;;;;;;33.35;18.73;;;8.70;99.90;;;;;;5072698;28;20048;-75
2023/02/13 10:31:33;;;;;;;37.20;18.85;;;8.70;99.90;;;;;;5075471;28;20059;-74
2023/02/13 10:34:03;;;;;;;36.42;21.95;;;8.80;99.90;;;;;;5070965;28;20058;-74
2023/02/13 10:36:36;;;;;;;41.95;24.80;;;8.80;99.90;;;;;;5078410;28;20040;-75
2023/02/13 10:39:05;;;;;;;38.78;22.52;;;8.90;99.90;;;;;;5075511;28;20052;-76
2023/02/13 10:41:33;;;;;;;38.72;22.58;;;8.90;99.90;;;;;;5071684;28;20039;-75
2023/02/13 10:44:14;;;;;;;37.90;22.60;;;8.90;99.90;;;;;;5063364;28;20045;-76
2023/02/13 10:47:02;;;;;;;39.83;22.42;;;9.00;99.90;;;;;;5058701;28;20134;-75
2023/02/13 10:49:55;;;;;;;39.83;21.73;;;9.00;99.90;;;;;;5063046;28;20047;-75
2023/02/13 10:52:43;;;;;;;39.20;21.48;;;9.10;99.90;;;;;;5066602;28;20400;-76
2023/02/13 10:55:31;;;;;;;33.30;21.52;;;9.10;99.90;;;;;;5075287;28;20039;-73
2023/02/13 10:58:15;;;;;;;36.17;20.38;;;9.10;99.90;;;;;;5095330;28;20119;-76
2023/02/13 11:00:54;;;;;;;36.10;20.88;;;9.10;99.90;;;;;;5066533;28;20135;-75
2023/02/13 11:03:25;;;;;;;41.97;21.65;;;9.10;99.90;;;;;;5070442;28;20373;-75
2023/02/13 11:05:52;;;;;;;36.53;20.67;;;9.00;99.90;;;;;;5094575;28;20051;-76
2023/02/13 11:08:20;;;;;;;34.78;20.90;;;9.00;99.90;;;;;;5071517;28;20128;-74
2023/02/13 11:10:46;;;;;;;36.45;21.17;;;9.10;99.90;;;;;;5072396;28;20064;-75
2023/02/13 11:13:21;;;;;;;39.28;21.98;;;9.10;99.90;;;;;;5075058;28;20484;-76
2023/02/13 11:16:05;;;;;;;38.50;21.95;;;9.20;99.90;;;;;;5067392;28;20423;-75
2023/02/13 11:18:34;;;;;;;39.58;21.95;;;9.20;99.90;;;;;;5076292;28;20048;-76
2023/02/13 11:21:06;;;;;;;37.25;22.27;;;9.20;99.90;;;;;;5058076;28;20571;-76
2023/02/13 11:23:43;;;;;;;38.28;22.95;;;9.30;99.90;;;;;;5061379;28;20039;-76
2023/02/13 11:26:21;;;;;;;39.70;22.83;;;9.40;99.90;;;;;;5062807;28;20036;-75
2023/02/13 11:28:52;;;;;;;38.70;22.60;;;9.70;99.90;;;;;;5068494;28;20041;-76
2023/02/13 11:31:25;;;;;;;34.33;20.20;;;9.30;99.90;;;;;;5056503;28;20059;-75
2023/02/13 11:33:51;;;;;;;40.85;23.27;;;9.40;99.90;;;;;;5088830;28;20076;-75
2023/02/13 11:36:37;;;;;;;41.50;24.08;;;9.50;99.90;;;;;;5069345;28;20051;-74
2023/02/13 11:39:24;;;;;;;38.58;23.85;;;9.40;99.90;;;;;;5072941;28;20060;-75
2023/02/13 11:41:50;;;;;;;40.35;24.13;;;9.50;99.90;;;;;;5071096;28;20520;-75
2023/02/13 11:44:27;;;;;;;41.90;23.88;;;9.50;99.90;;;;;;5072463;28;20035;-75
2023/02/13 11:46:55;;;;;;;40.00;23.25;;;9.50;99.90;;;;;;5095449;28;20181;-75
2023/02/13 11:49:31;;;;;;;40.63;24.58;;;9.50;99.90;;;;;;5090350;28;20079;-76
2023/02/13 11:52:31;;;;;;;39.75;24.50;;;9.60;99.90;;;;;;5066434;28;20423;-76
2023/02/13 11:54:59;;;;;;;39.45;24.33;;;9.60;99.90;;;;;;5077664;28;20054;-75
2023/02/13 11:57:29;;;;;;;39.42;23.33;;;9.70;99.90;;;;;;5068448;28;20526;-75
2023/02/13 11:59:55;;;;;;;40.20;23.63;;;9.70;99.90;;;;;;5066607;28;20055;-76
2023/02/13 12:02:26;;;;;;;35.80;23.88;;;9.80;99.90;;;;;;5082008;28;20036;-76
2023/02/13 12:05:12;;;;;;;37.08;23.30;;;9.80;99.90;;;;;;5072383;28;20032;-76
2023/02/13 12:07:39;;;;;;;39.47;23.90;;;9.90;99.90;;;;;;5066277;28;20101;-75
2023/02/13 12:10:18;;;;;;;41.05;23.33;;;9.90;99.90;;;;;;5071738;28;20039;-75
2023/02/13 12:13:02;;;;;;;40.60;23.30;;;10.00;99.90;;;;;;5052887;28;20036;-76
2023/02/13 12:15:31;;;;;;;38.53;24.75;;;10.10;99.90;;;;;;5066579;28;20047;-76
2023/02/13 12:18:18;;;;;;;36.03;23.42;;;10.10;99.90;;;;;;5069615;28;20039;-75
2023/02/13 12:21:00;;;;;;;33.70;22.83;;;10.20;99.90;;;;;;5073032;28;20513;-75
2023/02/13 12:23:51;;;;;;;38.58;23.08;;;10.10;99.90;;;;;;5071081;28;20483;-75
2023/02/13 12:26:36;;;;;;;33.83;23.42;;;10.10;99.90;;;;;;5072168;28;20399;-75
2023/02/13 12:29:14;;;;;;;36.28;23.17;;;10.10;99.90;;;;;;5048620;28;20036;-75
2023/02/13 12:32:03;;;;;;;35.97;24.30;;;10.10;99.90;;;;;;5064263;28;20044;-76
2023/02/13 12:34:47;;;;;;;35.38;23.63;;;10.00;99.90;;;;;;5066779;28;20394;-75
2023/02/13 12:37:15;;;;;;;33.55;22.90;;;10.00;99.90;;;;;;5072385;28;20133;-75
2023/02/13 12:39:47;;;;;;;33.90;23.42;;;10.00;99.90;;;;;;5099790;28;20108;-75
2023/02/13 12:42:36;;;;;;;33.88;23.23;;;9.90;99.90;;;;;;5071107;28;20060;-75
2023/02/13 12:45:39;;;;;;;35.15;24.60;;;9.90;99.90;;;;;;5074459;28;20052;-76
2023/02/13 12:48:30;;;;;;;35.42;24.27;;;10.00;99.90;;;;;;5062526;28;20522;-75
2023/02/13 12:51:11;;;;;;;37.38;24.20;;;10.00;99.90;;;;;;5071190;28;20051;-76
2023/02/13 12:54:19;;;;;;;34.30;23.67;;;10.00;99.90;;;;;;5065665;28;20047;-76
2023/02/13 12:57:08;;;;;;;34.95;23.95;;;10.10;99.90;;;;;;5031503;28;20048;-75
2023/02/13 12:59:39;;;;;;;38.17;25.05;;;10.10;99.90;;;;;;5087164;28;20032;-75
2023/02/13 13:02:42;;;;;;;34.83;22.90;;;10.10;99.90;;;;;;5071541;28;20036;-75
2023/02/13 13:05:28;;;;;;;36.20;24.65;;;10.20;99.90;;;;;;5068518;28;20394;-75
2023/02/13 13:08:03;;;;;;;35.25;23.42;;;10.20;99.90;;;;;;5079074;28;20504;-75
2023/02/13 13:10:44;;;;;;;35.85;24.10;;;10.20;99.90;;;;;;5083472;28;20125;-75
2023/02/13 13:13:37;;;;;;;35.72;24.23;;;10.30;99.90;;;;;;5072984;28;20036;-75
2023/02/13 13:16:25;;;;;;;36.25;24.08;;;10.30;99.90;;;;;;5068407;28;20047;-76
2023/02/13 13:19:12;;;;;;;36.40;24.38;;;10.30;99.90;;;;;;5064118;28;20127;-76
2023/02/13 13:21:53;;;;;;;36.20;25.23;;;10.30;99.90;;;;;;5070348;28;20052;-77
2023/02/13 13:24:51;;;;;;;36.85;25.45;;;10.30;99.90;;;;;;5065626;28;20067;-76
2023/02/13 13:27:22;;;;;;;40.45;27.90;;;10.30;99.90;;;;;;5053750;28;20050;-77
2023/02/13 13:30:02;;;;;;;39.88;28.17;;;10.30;99.90;;;;;;5069633;28;20041;-77
2023/02/13 13:32:29;;;;;;;39.67;26.80;;;10.30;99.90;;;;;;5043269;28;20471;-76
2023/02/13 13:34:56;;;;;;;41.10;29.25;;;10.30;99.90;;;;;;5070353;28;20107;-76
2023/02/13 13:37:25;;;;;;;39.92;28.13;;;10.40;99.90;;;;;;5070227;28;20086;-77
2023/02/13 13:40:44;;;;;;;40.00;28.25;;;10.40;99.90;;;;;;5067297;28;20040;-77